Time;durP1;ratioP1;P1;durP2;ratioP2;P2;SDS_P1;SDS_P2;PMS_P1;PMS_P2;Temp;Humidity;BMP_temperature;BMP_pressure;BME280_temperature;BME280_humidity;BME280_pressure;Samples;Min_cycle;Max_cycle;Signal;HPM_P1;HPM_P2
2022/06/22 00:00:18;;;;;;;2.90;2.80;;;;;;;16.10;78.56;65883.38;5096868;28;20240;-69
2022/06/22 00:02:48;;;;;;;2.47;2.47;;;;;;;16.04;78.95;65876.13;5114326;28;20242;-69
2022/06/22 00:05:19;;;;;;;3.57;3.47;;;;;;;16.01;79.12;65870.19;5116687;28;20283;-69
2022/06/22 00:07:49;;;;;;;3.50;3.40;;;;;;;;;;5099884;28;20601;-69
2022/06/22 00:10:37;;;;;;;2.80;2.70;;;;;;;15.95;78.91;65864.06;5096115;28;20239;-69
2022/06/22 00:13:13;;;;;;;3.30;3.30;;;;;;;15.87;79.20;65857.75;5096139;28;20801;-69
2022/06/22 00:15:47;;;;;;;2.97;2.90;;;;;;;15.80;79.84;65844.72;5095749;28;20197;-69
2022/06/22 00:18:39;;;;;;;4.10;3.47;;;;;;;15.73;80.86;65847.97;5096092;28;20178;-69
2022/06/22 00:21:22;;;;;;;3.63;3.50;;;;;;;15.71;81.62;65845.72;5096125;28;20183;-69
2022/06/22 00:23:52;;;;;;;3.27;3.13;;;;;;;15.73;81.56;65839.56;5112410;28;20592;-69
2022/06/22 00:26:24;;;;;;;3.57;3.20;;;;;;;15.68;81.06;65837.72;5116312;28;20213;-69
2022/06/22 00:29:04;;;;;;;3.30;3.20;;;;;;;15.63;81.37;65826.34;5098793;28;20658;-69
2022/06/22 00:31:56;;;;;;;3.13;3.10;;;;;;;15.53;81.90;65815.19;5109601;28;20213;-70
2022/06/22 00:34:33;;;;;;;3.10;3.10;;;;;;;15.45;82.63;65822.56;5115687;28;20201;-69
2022/06/22 00:37:02;;;;;;;3.10;3.10;;;;;;;;;;5096597;28;20220;-69
2022/06/22 00:39:28;;;;;;;3.13;2.93;;;;;;;15.32;83.13;65797.63;5102922;28;20205;-69
2022/06/22 00:42:18;;;;;;;3.50;3.50;;;;;;;15.28;83.21;65788.47;5095520;28;20275;-69
2022/06/22 00:44:59;;;;;;;3.30;3.20;;;;;;;15.20;83.51;65781.63;5095129;28;20174;-69
2022/06/22 00:47:38;;;;;;;3.13;2.93;;;;;;;15.11;84.16;65780.56;5103651;28;20278;-69
2022/06/22 00:50:15;;;;;;;3.20;3.20;;;;;;;15.09;84.71;65778.34;5104201;28;20280;-69
2022/06/22 00:52:54;;;;;;;3.83;3.50;;;;;;;15.04;85.15;65769.63;5079888;28;20214;-69
2022/06/22 00:55:33;;;;;;;3.67;3.57;;;;;;;15.00;85.85;65768.34;5095964;28;20212;-69
2022/06/22 00:58:07;;;;;;;4.17;3.17;;;;;;;15.00;85.62;65768.34;5095612;28;20636;-69
2022/06/22 01:00:38;;;;;;;3.50;3.50;;;;;;;14.93;85.71;65754.75;5095163;28;20247;-69
2022/06/22 01:03:25;;;;;;;3.47;3.17;;;;;;;14.93;85.41;65749.53;5095695;28;20335;-69
2022/06/22 01:05:56;;;;;;;4.27;3.87;;;;;;;;;;5095482;28;20235;-69
2022/06/22 01:08:25;;;;;;;2.90;2.90;;;;;;;14.89;85.44;65748.25;5094993;28;20277;-69
2022/06/22 01:11:05;;;;;;;3.27;3.17;;;;;;;14.95;85.04;65757.53;5094718;28;20273;-69
2022/06/22 01:13:43;;;;;;;3.90;3.70;;;;;;;14.98;84.99;65755.09;5094807;28;20182;-69
2022/06/22 01:16:24;;;;;;;3.47;3.47;;;;;;;14.96;85.05;65761.28;5077212;28;20579;-69
2022/06/22 01:19:05;;;;;;;3.60;3.60;;;;;;;14.95;85.29;65757.00;5094722;28;20178;-69
2022/06/22 01:21:44;;;;;;;3.07;3.07;;;;;;;14.96;85.12;65763.88;5094923;28;20215;-69
2022/06/22 01:24:20;;;;;;;3.77;3.67;;;;;;;;;;5106095;28;20595;-69
2022/06/22 01:27:29;;;;;;;3.57;3.40;;;;;;;14.90;85.91;65746.19;5094719;28;20224;-68
2022/06/22 01:29:59;;;;;;;3.73;3.53;;;;;;;14.91;86.50;65758.31;5084890;28;20263;-70
2022/06/22 01:32:29;;;;;;;3.80;3.60;;;;;;;14.85;86.34;65738.56;5094314;28;20213;-68
2022/06/22 01:35:00;;;;;;;3.97;3.87;;;;;;;14.84;85.82;65742.69;5095142;28;20182;-68
2022/06/22 01:37:30;;;;;;;3.60;3.60;;;;;;;14.75;85.78;65730.06;5094780;28;20650;-69
2022/06/22 01:40:11;;;;;;;3.40;3.20;;;;;;;14.66;86.13;65727.91;5094786;28;20586;-69
2022/06/22 01:42:47;;;;;;;3.60;3.50;;;;;;;14.63;86.24;65721.94;5099358;28;20718;-69
2022/06/22 01:45:22;;;;;;;3.20;3.20;;;;;;;14.54;86.49;65713.03;5094983;28;20234;-69
2022/06/22 01:48:26;;;;;;;3.63;3.63;;;;;;;14.49;86.67;65701.69;5094513;28;20218;-69
2022/06/22 01:51:10;;;;;;;2.87;2.87;;;;;;;14.43;87.08;65698.19;5104524;28;20647;-69
2022/06/22 01:53:44;;;;;;;3.53;3.47;;;;;;;14.39;87.25;65687.94;5096849;28;20193;-69
2022/06/22 01:56:17;;;;;;;3.60;3.60;;;;;;;14.35;87.42;65691.88;5113902;28;20201;-68
2022/06/22 01:59:01;;;;;;;3.90;3.70;;;;;;;14.30;87.33;65681.66;5093752;28;20221;-68
2022/06/22 02:01:37;;;;;;;3.27;3.27;;;;;;;14.26;88.08;65684.47;5094330;28;20237;-68
2022/06/22 02:04:34;;;;;;;4.37;4.07;;;;;;;14.28;87.75;65679.41;5094596;28;20221;-68
2022/06/22 02:10:13;;;;;;;3.93;3.83;;;;;;;14.47;87.25;65699.47;5094595;28;20224;-68
2022/06/22 02:12:46;;;;;;;4.20;4.10;;;;;;;14.47;87.30;65705.25;5093471;28;20217;-69
2022/06/22 02:15:37;;;;;;;3.70;3.50;;;;;;;14.53;87.24;65706.16;5093596;28;20186;-68
2022/06/22 02:18:08;;;;;;;3.63;3.53;;;;;;;14.54;87.04;65713.03;5102329;28;20189;-68
2022/06/22 02:20:38;;;;;;;3.67;3.63;;;;;;;14.60;86.94;65716.53;5094504;28;20202;-69
2022/06/22 02:23:20;;;;;;;3.93;3.63;;;;;;;14.66;86.35;65720.06;5093166;28;20729;-68
2022/06/22 02:26:10;;;;;;;3.67;3.67;;;;;;;14.71;86.41;65731.38;5093280;28;20198;-68
2022/06/22 02:28:37;;;;;;;3.57;3.37;;;;;;;14.75;86.15;65730.63;5093178;28;20530;-69
2022/06/22 02:31:03;;;;;;;4.13;4.03;;;;;;;14.80;85.73;65738.81;5093814;28;20216;-69
2022/06/22 02:33:34;;;;;;;3.80;3.70;;;;;;;14.86;85.56;65742.31;5093094;28;20715;-69
2022/06/22 02:36:00;;;;;;;4.50;4.20;;;;;;;14.90;85.36;65751.97;5093576;28;20197;-68
2022/06/22 02:38:28;;;;;;;4.03;3.83;;;;;;;14.94;85.55;65761.09;5093505;28;20197;-68
2022/06/22 02:46:35;;;;;;;4.30;3.90;;;;;;;14.99;86.34;65756.19;5093699;28;20239;-68
2022/06/22 02:49:07;;;;;;;3.90;3.63;;;;;;;14.97;86.26;65772.28;5093691;28;20178;-68
2022/06/22 02:51:43;;;;;;;8.53;4.03;;;;;;;14.92;86.30;65745.81;5093641;28;20210;-69
2022/06/22 02:54:34;;;;;;;3.60;3.50;;;;;;;14.84;86.64;65738.00;5096902;28;20587;-68
2022/06/22 02:57:32;;;;;;;4.10;4.00;;;;;;;14.82;86.99;65740.47;5093341;28;20170;-68
2022/06/22 02:59:59;;;;;;;4.63;4.33;;;;;;;14.76;87.21;65739.56;5093506;28;20193;-68
2022/06/22 03:02:26;;;;;;;4.17;4.07;;;;;;;14.73;87.50;65728.41;5098330;28;20244;-69
2022/06/22 03:04:57;;;;;;;4.27;4.17;;;;;;;14.77;87.32;65729.66;5092975;28;20694;-69
2022/06/22 03:07:25;;;;;;;4.20;4.10;;;;;;;14.71;87.72;65728.22;5093289;28;20214;-68
2022/06/22 03:09:52;;;;;;;4.30;4.20;;;;;;;14.67;87.90;65721.72;5096712;28;20182;-68
2022/06/22 03:12:19;;;;;;;3.70;3.67;;;;;;;14.61;88.21;65720.28;5097251;28;20623;-68
2022/06/22 03:14:57;;;;;;;4.33;4.27;;;;;;;14.55;88.46;65714.16;5103592;28;20273;-69
2022/06/22 03:17:33;;;;;;;3.70;3.60;;;;;;;14.55;88.62;65708.91;5097568;28;20174;-68
2022/06/22 03:20:04;;;;;;;5.03;4.73;;;;;;;14.56;88.87;65712.63;5098271;28;20202;-69
2022/06/22 03:22:34;;;;;;;4.50;4.47;;;;;;;14.54;89.17;65710.44;5079015;28;20249;-69
2022/06/22 03:25:18;;;;;;;3.67;3.67;;;;;;;14.50;89.16;65718.47;5096990;28;20208;-69
2022/06/22 03:27:48;;;;;;;4.20;4.00;;;;;;;14.43;89.43;65695.56;5097600;28;20232;-69
2022/06/22 03:30:20;;;;;;;4.03;4.03;;;;;;;14.37;89.54;65690.94;5097771;28;20186;-69
2022/06/22 03:33:10;;;;;;;5.80;5.40;;;;;;;14.31;89.85;65695.81;5097142;28;20210;-69
2022/06/22 03:35:47;;;;;;;3.80;3.57;;;;;;;14.26;90.15;65668.81;5097206;28;20231;-69
2022/06/22 03:38:18;;;;;;;4.53;4.23;;;;;;;14.21;90.47;65676.84;5096853;28;20186;-69
2022/06/22 03:41:03;;;;;;;4.40;4.10;;;;;;;14.14;90.97;65679.50;5097011;28;20209;-69
2022/06/22 03:44:01;;;;;;;5.00;4.90;;;;;;;14.12;91.34;65666.31;5110363;28;20243;-69
2022/06/22 03:46:34;;;;;;;4.33;4.23;;;;;;;14.07;91.20;65658.13;5086203;28;20206;-69
2022/06/22 03:49:10;;;;;;;4.67;4.67;;;;;;;13.79;92.21;65633.34;5096456;28;20202;-69
2022/06/22 03:51:47;;;;;;;5.03;4.73;;;;;;;13.63;92.81;65618.16;5096940;28;20244;-68
2022/06/22 03:54:24;;;;;;;4.77;4.67;;;;;;;13.52;93.23;65608.53;5096436;28;20198;-68
2022/06/22 03:56:55;;;;;;;4.90;4.80;;;;;;;13.49;93.46;65610.97;5099401;28;20594;-70
2022/06/22 03:59:22;;;;;;;5.43;5.33;;;;;;;13.46;94.33;65592.00;5096437;28;20201;-68
2022/06/22 04:01:50;;;;;;;6.27;5.73;;;;;;;13.42;94.45;65595.38;5096252;28;20754;-68
2022/06/22 04:04:16;;;;;;;4.70;4.40;;;;;;;13.46;94.71;65592.56;5096768;28;20221;-69
2022/06/22 04:06:46;;;;;;;4.87;4.77;;;;;;;13.53;95.08;65601.84;5096276;28;20550;-68
2022/06/22 04:09:18;;;;;;;5.60;5.17;;;;;;;13.54;95.13;65608.16;5096046;28;20198;-69
2022/06/22 04:12:01;;;;;;;5.90;5.60;;;;;;;13.53;95.27;65596.63;5096078;28;20213;-68
2022/06/22 04:14:52;;;;;;;5.87;5.67;;;;;;;13.49;95.18;65590.66;5093766;28;20228;-69
2022/06/22 04:17:34;;;;;;;5.20;5.10;;;;;;;13.44;95.92;65587.72;5096053;28;20236;-69
2022/06/22 04:20:18;;;;;;;6.43;6.00;;;;;;;13.46;96.12;65597.22;5095037;28;20229;-69
2022/06/22 04:22:52;;;;;;;4.87;4.67;;;;;;;13.49;96.36;65595.31;5095812;28;20304;-69
2022/06/22 04:25:37;;;;;;;6.80;6.43;;;;;;;13.48;96.97;65592.16;5095545;28;20197;-69
2022/06/22 04:28:08;;;;;;;5.67;5.57;;;;;;;13.57;96.98;65601.59;5096455;28;20231;-69
2022/06/22 04:30:42;;;;;;;4.80;4.70;;;;;;;13.65;97.27;65613.13;5096415;28;20216;-70
2022/06/22 04:33:20;;;;;;;6.03;5.50;;;;;;;13.72;97.38;65618.28;5095733;28;20231;-68
2022/06/22 04:36:16;;;;;;;11.90;5.67;;;;;;;13.80;97.14;65633.91;5096236;28;20188;-70
2022/06/22 04:38:57;;;;;;;6.40;5.73;;;;;;;13.92;97.36;65642.56;5090906;28;20601;-70
2022/06/22 04:41:32;;;;;;;6.13;5.87;;;;;;;14.03;97.57;65662.63;5095400;28;20218;-69
2022/06/22 04:44:03;;;;;;;6.17;6.07;;;;;;;14.25;97.41;65676.09;5095228;28;20198;-68
2022/06/22 04:46:34;;;;;;;6.03;5.80;;;;;;;14.37;97.33;65696.16;5102138;28;20193;-69
2022/06/22 04:49:12;;;;;;;6.03;5.93;;;;;;;14.55;96.53;65713.59;5116161;28;20646;-69
2022/06/22 04:51:43;;;;;;;6.27;5.73;;;;;;;14.68;96.04;65728.06;5116021;28;20679;-69
2022/06/22 04:54:28;;;;;;;5.83;5.53;;;;;;;;;;5100702;28;20233;-69
2022/06/22 04:57:01;;;;;;;5.43;5.33;;;;;;;14.91;95.18;65757.75;5094932;28;20197;-69
2022/06/22 04:59:29;;;;;;;5.83;5.60;;;;;;;14.98;95.17;65755.66;5096837;28;20201;-69
2022/06/22 05:02:00;;;;;;;6.10;5.70;;;;;;;15.08;94.82;65787.69;5100191;28;20292;-70
2022/06/22 05:04:35;;;;;;;5.93;5.60;;;;;;;15.11;94.40;65770.13;5095623;28;20225;-69
2022/06/22 05:07:11;;;;;;;7.00;6.50;;;;;;;15.19;93.94;65785.75;5095702;28;20173;-69
2022/06/22 05:09:47;;;;;;;5.57;5.40;;;;;;;;;;5094646;28;20624;-69
2022/06/22 05:12:19;;;;;;;5.43;5.27;;;;;;;15.22;93.91;65781.81;5093751;28;20209;-69
2022/06/22 05:14:48;;;;;;;6.87;6.60;;;;;;;15.24;94.22;65788.72;5100800;28;20238;-69
2022/06/22 05:17:47;;;;;;;6.77;6.20;;;;;;;15.32;93.69;65792.38;5100070;28;20225;-69
2022/06/22 05:20:50;;;;;;;5.37;5.27;;;;;;;15.40;93.61;65799.22;5050353;28;20245;-69
2022/06/22 05:23:19;;;;;;;6.60;6.13;;;;;;;15.48;93.89;65812.25;5094414;28;20649;-69
2022/06/22 05:25:48;;;;;;;5.70;5.60;;;;;;;15.52;93.65;65822.50;5095005;28;20213;-69
2022/06/22 05:28:25;;;;;;;5.67;5.57;;;;;;;15.66;93.54;65829.69;5094188;28;20267;-69
2022/06/22 05:31:02;;;;;;;5.90;5.73;;;;;;;15.78;93.53;65834.63;5094300;28;20591;-69
2022/06/22 05:33:30;;;;;;;6.13;5.90;;;;;;;15.89;93.07;65857.94;5094118;28;20196;-69
2022/06/22 05:36:03;;;;;;;6.40;6.20;;;;;;;;;;5093980;28;20193;-69
2022/06/22 05:38:42;;;;;;;5.57;5.43;;;;;;;16.04;91.70;65871.47;5094716;28;20537;-69
2022/06/22 05:41:09;;;;;;;7.10;6.70;;;;;;;16.01;90.11;65870.75;5095131;28;20190;-69
2022/06/22 05:43:37;;;;;;;6.43;6.07;;;;;;;;;;5094251;28;20185;-69
2022/06/22 05:46:05;;;;;;;7.07;6.43;;;;;;;16.03;90.50;65870.34;5095633;28;20214;-70
2022/06/22 05:48:38;;;;;;;7.80;7.30;;;;;;;16.00;90.66;65872.22;5112264;28;20194;-71
2022/06/22 05:51:16;;;;;;;6.37;5.97;;;;;;;16.10;90.44;65878.13;5094702;28;20213;-70
2022/06/22 05:53:49;;;;;;;7.27;6.73;;;;;;;;;;5094553;28;20174;-69
2022/06/22 05:56:24;;;;;;;8.03;7.00;;;;;;;16.30;89.95;65896.69;5095924;28;20226;-69
2022/06/22 05:59:07;;;;;;;5.90;5.70;;;;;;;;;;5111976;28;20193;-69
2022/06/22 06:01:45;;;;;;;6.77;6.57;;;;;;;16.45;90.07;65921.25;5102563;28;20243;-70
2022/06/22 06:04:18;;;;;;;5.70;5.60;;;;;;;16.49;89.46;65925.72;5104517;28;20243;-69
2022/06/22 06:06:45;;;;;;;6.47;6.17;;;;;;;;;;5109690;28;20208;-69
2022/06/22 06:09:19;;;;;;;5.80;5.57;;;;;;;16.80;88.79;65953.94;5112154;28;20223;-70
2022/06/22 06:11:55;;;;;;;6.70;6.20;;;;;;;16.82;88.39;65956.72;5105750;28;20748;-70
2022/06/22 06:14:32;;;;;;;5.63;5.53;;;;;;;16.91;87.96;65964.13;5097629;28;20235;-69
2022/06/22 06:17:06;;;;;;;6.13;5.80;;;;;;;17.01;88.03;65977.34;5097658;28;20590;-70
2022/06/22 06:19:33;;;;;;;6.17;5.97;;;;;;;;;;5108703;28;20779;-69
2022/06/22 06:22:04;;;;;;;6.70;6.37;;;;;;;17.22;85.54;66006.00;5107819;28;20241;-69
2022/06/22 06:24:35;;;;;;;5.90;5.50;;;;;;;;;;5100791;28;20190;-69
2022/06/22 06:30:01;;;;;;;6.70;6.40;;;;;;;17.54;84.70;66037.94;5092093;28;20199;-70
2022/06/22 06:33:06;;;;;;;5.30;5.20;;;;;;;17.66;83.94;66048.69;5092774;28;20210;-69
2022/06/22 06:35:42;;;;;;;5.77;5.40;;;;;;;17.79;83.88;66067.94;5092347;28;20260;-70
2022/06/22 06:38:11;;;;;;;7.90;5.50;;;;;;;17.86;83.02;66062.59;5094006;28;20185;-69
2022/06/22 06:40:44;;;;;;;5.50;5.20;;;;;;;;;;5093403;28;20241;-69
2022/06/22 06:43:24;;;;;;;6.27;5.17;;;;;;;18.07;81.94;66093.34;5092725;28;20206;-69
2022/06/22 06:45:52;;;;;;;5.27;5.17;;;;;;;18.10;80.92;66094.06;5093987;28;20181;-69
2022/06/22 06:48:25;;;;;;;5.43;4.90;;;;;;;18.22;81.37;66110.09;5093672;28;20651;-69
2022/06/22 06:50:52;;;;;;;5.77;5.50;;;;;;;;;;5093414;28;20227;-69
2022/06/22 06:53:28;;;;;;;5.13;5.03;;;;;;;;;;5093604;28;20223;-69
2022/06/22 06:56:01;;;;;;;5.37;5.17;;;;;;;18.50;80.06;66132.88;5093643;28;20234;-69
2022/06/22 06:58:47;;;;;;;5.50;5.40;;;;;;;18.47;79.66;66136.88;5075231;28;20185;-70
2022/06/22 07:01:21;;;;;;;5.73;5.53;;;;;;;18.50;80.16;66148.09;5093124;28;20603;-69
2022/06/22 07:03:48;;;;;;;5.93;5.53;;;;;;;;;;5093743;28;20174;-71
2022/06/22 07:06:15;;;;;;;4.90;4.50;;;;;;;18.62;79.90;66153.59;5096937;28;20591;-72
2022/06/22 07:08:49;;;;;;;5.77;5.57;;;;;;;;;;5097843;28;20599;-70
2022/06/22 07:11:31;;;;;;;5.77;5.27;;;;;;;18.85;78.67;66178.75;5093340;28;20235;-70
2022/06/22 07:14:05;;;;;;;4.90;4.70;;;;;;;18.91;78.24;66183.38;5096113;28;20190;-70
2022/06/22 07:16:32;;;;;;;4.87;4.67;;;;;;;18.96;78.20;66194.22;5092751;28;20193;-69
2022/06/22 07:19:13;;;;;;;4.13;4.10;;;;;;;;;;5097371;28;20657;-71
2022/06/22 07:21:45;;;;;;;5.57;4.37;;;;;;;19.03;77.95;66204.13;5108891;28;20308;-70
2022/06/22 07:24:40;;;;;;;4.33;4.23;;;;;;;19.20;77.85;66217.28;5096453;28;20189;-70
2022/06/22 07:27:16;;;;;;;4.73;4.27;;;;;;;19.18;76.55;66212.41;5092408;28;20218;-69
2022/06/22 07:30:01;;;;;;;4.43;4.20;;;;;;;19.24;76.76;66219.66;5092058;28;20224;-71
2022/06/22 07:32:51;;;;;;;4.60;4.40;;;;;;;19.34;75.58;66232.91;5096243;28;20271;-70
2022/06/22 07:35:33;;;;;;;4.70;4.40;;;;;;;19.52;76.55;66253.03;5098304;28;20189;-69
2022/06/22 07:38:21;;;;;;;4.53;4.43;;;;;;;19.65;75.35;66263.81;5104828;28;20202;-69
2022/06/22 07:43:34;;;;;;;8.00;4.27;;;;;;;19.90;74.38;66293.81;5111942;28;20189;-70
2022/06/22 07:46:00;;;;;;;6.67;4.43;;;;;;;19.98;74.18;66300.69;5105602;28;20224;-69
2022/06/22 07:48:30;;;;;;;4.53;4.33;;;;;;;;;;5108815;28;20652;-71
2022/06/22 07:50:58;;;;;;;4.10;3.90;;;;;;;;;;5096118;28;20265;-69
2022/06/22 07:53:38;;;;;;;4.53;4.33;;;;;;;20.34;72.00;66334.53;5092665;28;20602;-69
2022/06/22 07:56:15;;;;;;;3.87;3.77;;;;;;;20.39;71.48;66345.41;5107962;28;20185;-73
2022/06/22 07:58:47;;;;;;;3.57;3.53;;;;;;;20.37;71.81;66345.81;5115222;28;20527;-69
2022/06/22 08:01:19;;;;;;;3.90;3.60;;;;;;;20.41;71.67;66347.06;5098439;28;20231;-70
2022/06/22 08:03:56;;;;;;;3.93;3.83;;;;;;;20.46;68.88;66355.88;5109878;28;20200;-71
2022/06/22 08:06:28;;;;;;;4.77;3.33;;;;;;;20.42;69.11;66351.38;5116985;28;20177;-70
2022/06/22 08:09:05;;;;;;;2.50;2.50;;;;;;;20.60;69.84;66382.09;5109416;28;20198;-71
2022/06/22 08:11:41;;;;;;;4.00;3.80;;;;;;;20.73;68.69;66382.88;5104952;28;20253;-69
2022/06/22 08:14:19;;;;;;;3.60;3.40;;;;;;;20.87;68.75;66400.63;5113897;28;20559;-69
2022/06/22 08:16:48;;;;;;;3.90;3.70;;;;;;;;;;5095720;28;20221;-70
2022/06/22 08:19:15;;;;;;;3.93;3.83;;;;;;;;;;5096007;28;20205;-72
2022/06/22 08:21:44;;;;;;;3.07;3.07;;;;;;;20.83;68.60;66399.34;5096281;28;20304;-69
2022/06/22 08:24:13;;;;;;;3.60;3.30;;;;;;;21.06;68.84;66419.22;5095259;28;20660;-69
2022/06/22 08:26:41;;;;;;;3.50;3.50;;;;;;;21.19;68.68;66435.84;5094988;28;20217;-70
2022/06/22 08:29:08;;;;;;;3.10;3.10;;;;;;;21.37;65.85;66455.47;5099983;28;20727;-70
2022/06/22 08:31:59;;;;;;;3.07;2.97;;;;;;;21.35;65.65;66451.13;5095840;28;20221;-70
2022/06/22 08:34:49;;;;;;;3.57;3.43;;;;;;;;;;5096518;28;20221;-69
2022/06/22 08:37:34;;;;;;;4.10;3.80;;;;;;;21.60;64.08;66481.19;5104394;28;20203;-70
2022/06/22 08:40:19;;;;;;;5.60;3.07;;;;;;;;;;5104273;28;20186;-70
2022/06/22 08:43:23;;;;;;;4.73;3.10;;;;;;;21.86;62.27;66509.16;5096169;28;20221;-69
2022/06/22 08:46:38;;;;;;;3.30;3.10;;;;;;;21.91;62.78;66512.13;5095468;28;20216;-68
2022/06/22 08:49:22;;;;;;;2.93;2.93;;;;;;;21.95;61.45;66516.59;5039567;28;20270;-69
2022/06/22 08:52:32;;;;;;;3.10;2.87;;;;;;;22.02;60.60;66519.16;5098635;28;20718;-68
2022/06/22 08:55:25;;;;;;;2.47;2.47;;;;;;;21.97;60.32;66518.84;5099389;28;20235;-68
2022/06/22 08:58:07;;;;;;;2.80;2.70;;;;;;;22.05;62.13;66530.44;5105909;28;20613;-68
2022/06/22 09:01:02;;;;;;;3.07;2.97;;;;;;;22.16;59.34;66540.13;5095599;28;20190;-69
2022/06/22 09:03:41;;;;;;;2.87;2.80;;;;;;;22.13;59.36;66536.22;5095832;28;20182;-70
2022/06/22 09:06:43;;;;;;;2.30;2.30;;;;;;;22.18;58.29;66544.47;5094743;28;20201;-68
2022/06/22 09:09:39;;;;;;;2.10;2.10;;;;;;;22.34;57.94;66559.16;5081438;28;20209;-68
2022/06/22 09:12:34;;;;;;;2.70;2.70;;;;;;;22.44;57.29;66570.94;5095310;28;20218;-68
2022/06/22 09:15:44;;;;;;;6.70;2.57;;;;;;;22.43;56.74;66561.28;5094925;28;20528;-69
2022/06/22 09:18:27;;;;;;;2.93;2.73;;;;;;;22.44;57.15;66575.66;5100201;28;20200;-68
2022/06/22 09:21:21;;;;;;;2.57;2.47;;;;;;;22.44;56.95;66578.88;5098559;28;20204;-68
2022/06/22 09:24:14;;;;;;;4.20;2.47;;;;;;;22.45;56.74;66571.50;5095345;28;20193;-69
2022/06/22 09:26:49;;;;;;;2.57;2.47;;;;;;;;;;5086627;28;20237;-68
2022/06/22 09:29:18;;;;;;;2.73;2.73;;;;;;;;;;5093808;28;20209;-70
2022/06/22 09:31:45;;;;;;;2.60;2.60;;;;;;;22.50;57.57;66577.06;5094711;28;20612;-72
2022/06/22 09:34:43;;;;;;;2.47;2.47;;;;;;;22.55;58.32;66584.75;5095170;28;20197;-69
2022/06/22 09:37:28;;;;;;;2.73;2.53;;;;;;;22.58;57.53;66585.50;5062190;28;20241;-68
2022/06/22 09:40:11;;;;;;;2.17;2.10;;;;;;;22.71;56.13;66594.75;5094274;28;20217;-69
2022/06/22 09:42:49;;;;;;;2.07;2.07;;;;;;;22.63;56.25;66591.06;5094503;28;20623;-69
2022/06/22 09:45:32;;;;;;;2.50;2.40;;;;;;;22.74;54.67;66606.63;5095011;28;20593;-69
2022/06/22 09:48:20;;;;;;;2.00;2.00;;;;;;;22.86;55.95;66619.53;5093941;28;20186;-68
2022/06/22 09:51:12;;;;;;;2.53;2.53;;;;;;;22.84;56.38;66614.59;5108964;28;20189;-69
2022/06/22 09:53:52;;;;;;;2.20;2.20;;;;;;;23.00;55.71;66627.25;5099715;28;20669;-68
2022/06/22 09:56:25;;;;;;;2.67;2.67;;;;;;;22.88;54.92;66621.75;5098822;28;20221;-69
2022/06/22 09:59:07;;;;;;;2.53;2.53;;;;;;;22.86;54.61;66616.28;5096344;28;20591;-68
2022/06/22 10:01:43;;;;;;;2.93;2.83;;;;;;;22.88;56.36;66618.56;5096635;28;20753;-71
2022/06/22 10:04:35;;;;;;;2.67;2.10;;;;;;;23.02;56.85;66629.50;5114419;28;20603;-69
2022/06/22 10:07:20;;;;;;;2.57;2.50;;;;;;;;;;5114330;28;20654;-70
2022/06/22 10:09:46;;;;;;;2.30;2.23;;;;;;;;;;5114340;28;20177;-69
2022/06/22 10:12:24;;;;;;;2.20;2.20;;;;;;;;;;5114527;28;20237;-68
2022/06/22 10:14:58;;;;;;;3.20;2.87;;;;;;;22.99;54.73;66633.50;5114530;28;20181;-68
2022/06/22 10:17:36;;;;;;;2.87;2.70;;;;;;;23.00;55.19;66634.63;5113623;28;20261;-69
2022/06/22 10:20:29;;;;;;;3.57;2.90;;;;;;;22.97;55.13;66631.84;5114654;28;20177;-69
2022/06/22 10:23:02;;;;;;;2.53;2.53;;;;;;;;;;5114028;28;20217;-68
2022/06/22 10:25:45;;;;;;;2.67;2.67;;;;;;;23.17;55.65;66651.03;5114666;28;20170;-68
2022/06/22 10:28:30;;;;;;;2.17;2.17;;;;;;;;;;5105875;28;20193;-69
2022/06/22 10:31:37;;;;;;;2.00;1.90;;;;;;;23.23;55.11;66657.22;5107052;28;20272;-69
2022/06/22 10:34:31;;;;;;;5.00;2.37;;;;;;;23.21;55.06;66650.22;5099029;28;20203;-69
2022/06/22 10:37:12;;;;;;;2.20;2.20;;;;;;;23.34;54.22;66672.72;5097463;28;20213;-69
2022/06/22 10:39:57;;;;;;;2.37;2.27;;;;;;;;;;5095487;28;20213;-69
2022/06/22 10:45:25;;;;;;;2.67;2.67;;;;;;;;;;5102751;28;20181;-70
2022/06/22 10:48:19;;;;;;;2.23;2.23;;;;;;;23.26;54.87;66663.78;5113725;28;20174;-69
2022/06/22 10:51:01;;;;;;;2.10;2.10;;;;;;;23.35;53.13;66671.19;5093650;28;20662;-68
2022/06/22 10:53:45;;;;;;;3.23;2.17;;;;;;;23.39;52.85;66675.13;5094131;28;20647;-68
2022/06/22 10:56:31;;;;;;;2.63;2.53;;;;;;;23.42;53.68;66678.47;5093756;28;20197;-70
2022/06/22 10:59:07;;;;;;;2.67;2.50;;;;;;;;;;5097825;28;20599;-69
2022/06/22 11:02:09;;;;;;;2.30;2.30;;;;;;;23.55;52.19;66692.50;5109031;28;20296;-69
2022/06/22 11:04:35;;;;;;;2.47;2.27;;;;;;;;;;5113927;28;20638;-69
2022/06/22 11:07:31;;;;;;;2.37;2.23;;;;;;;23.61;51.83;66699.25;5114152;28;20250;-69
2022/06/22 11:10:30;;;;;;;2.30;2.20;;;;;;;23.69;52.39;66710.88;5114157;28;20193;-69
2022/06/22 11:13:17;;;;;;;2.23;2.13;;;;;;;23.68;49.62;66706.53;5096343;28;20588;-69
2022/06/22 11:16:22;;;;;;;4.93;3.00;;;;;;;23.66;49.97;66707.50;5111899;28;20220;-71
2022/06/22 11:18:54;;;;;;;2.40;2.33;;;;;;;;;;5111308;28;20574;-68
2022/06/22 11:21:33;;;;;;;2.40;2.40;;;;;;;23.81;51.17;66721.13;5100346;28;20343;-69
2022/06/22 11:24:00;;;;;;;2.50;2.50;;;;;;;;;;5097115;28;20250;-69
2022/06/22 11:33:17;;;;;;;2.30;2.30;;;;;;;23.96;48.79;66740.03;5109766;28;20216;-68
2022/06/22 11:36:02;;;;;;;2.87;2.50;;;;;;;;;;5108853;28;20220;-69
2022/06/22 11:39:14;;;;;;;2.80;2.70;;;;;;;24.01;47.73;66738.22;5105826;28;20212;-69
2022/06/22 11:41:56;;;;;;;2.20;2.20;;;;;;;;;;5105276;28;20209;-70
2022/06/22 11:44:43;;;;;;;9.40;2.10;;;;;;;24.04;48.72;66749.00;5097037;28;20214;-69
2022/06/22 11:47:42;;;;;;;2.10;2.10;;;;;;;24.06;47.40;66743.28;5111364;28;21800;-70
2022/06/22 11:50:31;;;;;;;2.13;2.13;;;;;;;24.06;46.62;66749.13;5074244;28;20241;-69
2022/06/22 11:53:03;;;;;;;2.33;2.30;;;;;;;24.08;48.39;66754.03;5098007;28;20210;-68
2022/06/22 11:55:39;;;;;;;2.03;1.92;;;;;;;24.15;46.93;66758.69;5108864;28;20592;-68
2022/06/22 11:58:14;;;;;;;2.40;2.33;;;;;;;24.18;48.13;66764.69;5102967;28;20238;-69
2022/06/22 12:01:00;;;;;;;1.70;1.70;;;;;;;;;;5100497;28;20231;-68
2022/06/22 12:03:57;;;;;;;2.23;2.20;;;;;;;24.15;46.54;66758.69;5104053;28;20241;-69
2022/06/22 12:06:51;;;;;;;4.20;1.98;;;;;;;24.21;45.55;66768.03;5112696;28;20197;-68
2022/06/22 12:09:26;;;;;;;1.77;1.77;;;;;;;;;;5098466;28;20225;-69
2022/06/22 12:12:29;;;;;;;2.33;2.22;;;;;;;24.22;44.69;66768.59;5111608;28;20227;-68
2022/06/22 12:15:07;;;;;;;2.93;2.63;;;;;;;;;;5100383;28;20260;-69
2022/06/22 12:17:47;;;;;;;5.30;1.97;;;;;;;24.38;45.91;66784.50;5096322;28;20318;-69
2022/06/22 12:20:31;;;;;;;2.50;2.30;;;;;;;24.45;45.32;66791.22;5103064;28;20190;-69
2022/06/22 12:23:00;;;;;;;2.03;2.03;;;;;;;;;;5103804;28;20245;-68
2022/06/22 12:25:49;;;;;;;3.05;2.50;;;;;;;24.46;44.58;66787.03;5105378;28;20193;-69
2022/06/22 12:28:15;;;;;;;2.30;2.30;;;;;;;;;;5108294;28;20216;-68
2022/06/22 12:31:15;;;;;;;1.83;1.73;;;;;;;24.62;44.51;66810.84;5116212;28;20197;-68
2022/06/22 12:33:48;;;;;;;2.33;2.00;;;;;;;;;;5104333;28;20193;-69
2022/06/22 12:36:28;;;;;;;2.17;2.08;;;;;;;24.60;45.14;66808.03;5095733;28;20213;-68
2022/06/22 12:39:04;;;;;;;1.55;1.55;;;;;;;;;;5096055;28;20213;-69
2022/06/22 12:41:51;;;;;;;1.85;1.85;;;;;;;24.59;44.38;66810.13;5095219;28;20221;-69
2022/06/22 12:44:36;;;;;;;2.47;2.35;;;;;;;24.59;45.24;66810.13;5094844;28;20221;-69
2022/06/22 12:47:34;;;;;;;2.35;2.25;;;;;;;24.66;45.66;66817.44;5099185;28;20201;-69
2022/06/22 12:50:33;;;;;;;8.70;1.75;;;;;;;24.68;44.35;66819.69;5095146;28;20220;-68
2022/06/22 12:53:10;;;;;;;1.95;1.85;;;;;;;24.78;42.71;66828.22;5099199;28;20292;-70
2022/06/22 12:55:44;;;;;;;1.85;1.85;;;;;;;24.71;41.34;66815.06;5111163;28;20253;-68
2022/06/22 12:58:22;;;;;;;2.00;2.00;;;;;;;24.71;40.39;66823.59;5100788;28;20220;-69
2022/06/22 13:00:49;;;;;;;2.13;2.13;;;;;;;24.69;40.62;66821.34;5096857;28;20185;-68
2022/06/22 13:03:21;;;;;;;1.70;1.70;;;;;;;24.66;40.94;66814.78;5093758;28;20754;-69
2022/06/22 13:05:47;;;;;;;2.15;2.05;;;;;;;24.67;41.93;66815.91;5075810;28;20243;-69
2022/06/22 13:08:20;;;;;;;2.90;1.95;;;;;;;24.70;43.21;66821.91;5094259;28;20182;-70
2022/06/22 13:10:51;;;;;;;2.47;2.28;;;;;;;24.83;42.98;66836.50;5102927;28;20201;-71
2022/06/22 13:13:39;;;;;;;1.90;1.90;;;;;;;24.78;41.07;66828.22;5103548;28;20201;-69
2022/06/22 13:16:10;;;;;;;2.13;2.13;;;;;;;;;;5094251;28;20190;-69
2022/06/22 13:18:44;;;;;;;1.50;1.50;;;;;;;;;;5109307;28;20219;-68